Warner, New Hampshire
Current Conditions -  °F | °C
As of 7:51 PM on Saturday 22 Nov 2014 (Local Time) from KCON Reporting Station
Scattered Clouds Scattered Clouds  
Wind Chill: 31°   Ceiling: Unl
Heat Index: 37°   Visibility: 10mi
Dew Point: 10°   Wind: 8mph
Humidity: 33%   Direction: 190°S
Pressure: 30.02"   Gusts: NA
Location:  43.28°N, 71.82°W
Report Text: KCON 230051Z AUTO 19007KT 10SM FEW039 SCT060 03/M12 A3002 RMK AO2 SLP170 T00281122
Loading
Personal Weather Stations






























Interactive Weather Map New forecast layout! Learn more

10-Day Weather Forecast

Advertisements
Track Severe Weather on mobile